sensor_id;sensor_type;location;lat;lon;timestamp;pressure;altitude;pressure_sealevel;temperature;humidity
75913;BME280;64592;52.168;21.040;2023-05-29T00:03:40;100680.09;;;13.25;65.48
75913;BME280;64592;52.168;21.040;2023-05-29T00:08:42;100671.97;;;13.25;65.62
75913;BME280;64592;52.168;21.040;2023-05-29T00:13:45;100677.00;;;13.18;65.79
75913;BME280;64592;52.168;21.040;2023-05-29T00:18:47;100669.25;;;13.13;66.02
75913;BME280;64592;52.168;21.040;2023-05-29T00:23:49;100672.19;;;12.99;66.35
75913;BME280;64592;52.168;21.040;2023-05-29T00:28:52;100667.47;;;13.12;66.34
75913;BME280;64592;52.168;21.040;2023-05-29T00:33:54;100664.94;;;13.11;66.41
75913;BME280;64592;52.168;21.040;2023-05-29T00:38:56;100669.94;;;13.04;66.93
75913;BME280;64592;52.168;21.040;2023-05-29T00:43:59;100668.59;;;12.99;66.89
75913;BME280;64592;52.168;21.040;2023-05-29T00:49:01;100674.41;;;12.94;66.95
75913;BME280;64592;52.168;21.040;2023-05-29T00:54:04;100676.22;;;12.82;67.54
75913;BME280;64592;52.168;21.040;2023-05-29T00:59:09;100676.34;;;12.70;67.70
75913;BME280;64592;52.168;21.040;2023-05-29T01:04:13;100670.72;;;12.73;68.11
75913;BME280;64592;52.168;21.040;2023-05-29T01:09:17;100677.06;;;12.61;68.57
75913;BME280;64592;52.168;21.040;2023-05-29T01:14:25;100678.03;;;12.49;68.88
75913;BME280;64592;52.168;21.040;2023-05-29T01:19:58;100665.00;;;12.42;69.24
75913;BME280;64592;52.168;21.040;2023-05-29T01:25:05;100673.00;;;12.44;69.36
75913;BME280;64592;52.168;21.040;2023-05-29T01:30:15;100672.38;;;12.40;70.23
75913;BME280;64592;52.168;21.040;2023-05-29T01:35:18;100657.84;;;12.30;70.85
75913;BME280;64592;52.168;21.040;2023-05-29T01:40:19;100667.66;;;12.20;70.70
75913;BME280;64592;52.168;21.040;2023-05-29T01:45:23;100669.72;;;12.17;70.75
75913;BME280;64592;52.168;21.040;2023-05-29T01:50:25;100675.25;;;12.15;71.46
75913;BME280;64592;52.168;21.040;2023-05-29T01:55:29;100670.94;;;12.13;70.99
75913;BME280;64592;52.168;21.040;2023-05-29T02:00:32;100661.06;;;12.00;71.38
75913;BME280;64592;52.168;21.040;2023-05-29T02:05:34;100658.22;;;11.91;71.56
75913;BME280;64592;52.168;21.040;2023-05-29T02:10:38;100657.94;;;11.83;72.22
75913;BME280;64592;52.168;21.040;2023-05-29T02:15:41;100652.03;;;11.78;72.22
75913;BME280;64592;52.168;21.040;2023-05-29T02:20:43;100649.72;;;11.72;72.75
75913;BME280;64592;52.168;21.040;2023-05-29T02:25:45;100645.91;;;11.63;73.38
75913;BME280;64592;52.168;21.040;2023-05-29T02:30:48;100643.44;;;11.60;73.35
75913;BME280;64592;52.168;21.040;2023-05-29T02:35:50;100648.19;;;11.56;72.88
75913;BME280;64592;52.168;21.040;2023-05-29T02:40:52;100639.56;;;11.51;74.06
75913;BME280;64592;52.168;21.040;2023-05-29T02:45:57;100632.56;;;11.49;73.92
75913;BME280;64592;52.168;21.040;2023-05-29T02:50:59;100643.50;;;11.47;73.86
75913;BME280;64592;52.168;21.040;2023-05-29T02:56:01;100636.25;;;11.48;73.78
75913;BME280;64592;52.168;21.040;2023-05-29T03:01:04;100638.41;;;11.43;74.39
75913;BME280;64592;52.168;21.040;2023-05-29T03:06:06;100641.88;;;11.45;73.92
75913;BME280;64592;52.168;21.040;2023-05-29T03:11:08;100643.50;;;11.47;74.48
75913;BME280;64592;52.168;21.040;2023-05-29T03:16:12;100644.22;;;11.49;75.12
75913;BME280;64592;52.168;21.040;2023-05-29T03:21:15;100646.91;;;11.49;74.50
75913;BME280;64592;52.168;21.040;2023-05-29T03:26:18;100651.06;;;11.42;75.03
75913;BME280;64592;52.168;21.040;2023-05-29T03:31:21;100647.63;;;11.40;74.60
75913;BME280;64592;52.168;21.040;2023-05-29T03:36:23;100648.72;;;11.38;75.18
75913;BME280;64592;52.168;21.040;2023-05-29T03:41:24;100659.69;;;11.47;75.30
75913;BME280;64592;52.168;21.040;2023-05-29T03:46:29;100658.38;;;11.53;75.90
75913;BME280;64592;52.168;21.040;2023-05-29T03:51:31;100661.47;;;11.59;75.59
75913;BME280;64592;52.168;21.040;2023-05-29T03:56:34;100662.72;;;11.66;75.18
75913;BME280;64592;52.168;21.040;2023-05-29T04:01:38;100664.00;;;11.74;76.31
75913;BME280;64592;52.168;21.040;2023-05-29T04:06:39;100678.03;;;11.79;75.85
75913;BME280;64592;52.168;21.040;2023-05-29T04:11:43;100675.00;;;11.83;76.33
75913;BME280;64592;52.168;21.040;2023-05-29T04:16:47;100675.03;;;11.94;76.12
75913;BME280;64592;52.168;21.040;2023-05-29T04:21:49;100685.03;;;12.05;75.90
75913;BME280;64592;52.168;21.040;2023-05-29T04:26:51;100677.81;;;12.17;75.83
75913;BME280;64592;52.168;21.040;2023-05-29T04:31:55;100683.16;;;12.29;75.38
75913;BME280;64592;52.168;21.040;2023-05-29T04:36:56;100683.66;;;12.45;74.44
75913;BME280;64592;52.168;21.040;2023-05-29T04:41:58;100687.44;;;12.67;73.76
75913;BME280;64592;52.168;21.040;2023-05-29T04:47:02;100679.31;;;12.78;73.11
75913;BME280;64592;52.168;21.040;2023-05-29T04:52:04;100688.91;;;12.93;71.72
75913;BME280;64592;52.168;21.040;2023-05-29T04:57:09;100676.22;;;13.05;71.37
75913;BME280;64592;52.168;21.040;2023-05-29T05:02:13;100684.13;;;13.19;70.86
75913;BME280;64592;52.168;21.040;2023-05-29T05:07:15;100689.44;;;13.32;70.53
75913;BME280;64592;52.168;21.040;2023-05-29T05:12:17;100675.13;;;13.41;69.62
75913;BME280;64592;52.168;21.040;2023-05-29T05:17:22;100681.84;;;13.57;68.63
75913;BME280;64592;52.168;21.040;2023-05-29T05:22:24;100672.84;;;13.68;67.85
75913;BME280;64592;52.168;21.040;2023-05-29T05:27:27;100677.97;;;13.82;67.77
75913;BME280;64592;52.168;21.040;2023-05-29T05:32:35;100671.50;;;13.94;67.08
75913;BME280;64592;52.168;21.040;2023-05-29T05:37:38;100679.34;;;14.09;65.55
75913;BME280;64592;52.168;21.040;2023-05-29T05:42:40;100678.19;;;14.22;64.77
75913;BME280;64592;52.168;21.040;2023-05-29T05:47:44;100676.13;;;14.35;64.23
75913;BME280;64592;52.168;21.040;2023-05-29T05:52:46;100679.41;;;14.50;63.63
75913;BME280;64592;52.168;21.040;2023-05-29T05:57:50;100686.22;;;14.65;62.61
75913;BME280;64592;52.168;21.040;2023-05-29T06:02:53;100688.56;;;14.80;61.69
75913;BME280;64592;52.168;21.040;2023-05-29T06:07:55;100682.06;;;14.92;60.13
75913;BME280;64592;52.168;21.040;2023-05-29T06:12:56;100674.41;;;15.06;56.48
75913;BME280;64592;52.168;21.040;2023-05-29T06:17:59;100682.78;;;15.24;52.99
75913;BME280;64592;52.168;21.040;2023-05-29T06:23:01;100684.81;;;15.41;52.35
75913;BME280;64592;52.168;21.040;2023-05-29T06:28:03;100672.44;;;15.58;52.65
75913;BME280;64592;52.168;21.040;2023-05-29T06:33:07;100675.34;;;15.76;52.54
75913;BME280;64592;52.168;21.040;2023-05-29T06:38:09;100673.81;;;15.93;51.37
75913;BME280;64592;52.168;21.040;2023-05-29T06:43:11;100673.22;;;16.08;50.99
75913;BME280;64592;52.168;21.040;2023-05-29T06:48:14;100670.78;;;16.24;49.59
75913;BME280;64592;52.168;21.040;2023-05-29T06:53:16;100676.50;;;16.41;46.81
75913;BME280;64592;52.168;21.040;2023-05-29T06:58:17;100667.00;;;16.54;46.69
75913;BME280;64592;52.168;21.040;2023-05-29T07:03:22;100668.03;;;16.73;45.62
75913;BME280;64592;52.168;21.040;2023-05-29T07:08:25;100665.25;;;16.82;46.42
75913;BME280;64592;52.168;21.040;2023-05-29T07:13:26;100669.22;;;16.97;46.00
75913;BME280;64592;52.168;21.040;2023-05-29T07:18:30;100679.66;;;17.12;45.23
75913;BME280;64592;52.168;21.040;2023-05-29T07:23:32;100681.56;;;17.29;45.49
75913;BME280;64592;52.168;21.040;2023-05-29T07:28:34;100682.53;;;17.37;44.86
75913;BME280;64592;52.168;21.040;2023-05-29T07:33:40;100685.88;;;17.49;43.82
75913;BME280;64592;52.168;21.040;2023-05-29T07:38:43;100682.97;;;17.60;44.04
75913;BME280;64592;52.168;21.040;2023-05-29T07:43:45;100680.91;;;17.72;44.05
75913;BME280;64592;52.168;21.040;2023-05-29T07:48:53;100676.81;;;17.86;43.18
75913;BME280;64592;52.168;21.040;2023-05-29T07:53:54;100680.69;;;18.01;42.27
75913;BME280;64592;52.168;21.040;2023-05-29T07:58:57;100685.94;;;18.12;41.46
75913;BME280;64592;52.168;21.040;2023-05-29T08:04:01;100677.97;;;18.18;40.33
75913;BME280;64592;52.168;21.040;2023-05-29T08:09:04;100686.94;;;18.29;39.85
75913;BME280;64592;52.168;21.040;2023-05-29T08:14:07;100671.50;;;18.37;39.17
75913;BME280;64592;52.168;21.040;2023-05-29T08:19:12;100678.91;;;18.45;39.80
75913;BME280;64592;52.168;21.040;2023-05-29T08:24:14;100681.16;;;18.49;40.70
75913;BME280;64592;52.168;21.040;2023-05-29T08:29:16;100676.78;;;18.56;37.24
75913;BME280;64592;52.168;21.040;2023-05-29T08:34:20;100678.88;;;18.63;37.33
75913;BME280;64592;52.168;21.040;2023-05-29T08:39:22;100680.13;;;18.68;37.63
75913;BME280;64592;52.168;21.040;2023-05-29T08:44:25;100680.50;;;18.73;37.43
75913;BME280;64592;52.168;21.040;2023-05-29T08:49:37;100687.72;;;18.82;37.94
75913;BME280;64592;52.168;21.040;2023-05-29T08:54:40;100687.09;;;18.88;36.63
75913;BME280;64592;52.168;21.040;2023-05-29T08:59:43;100673.66;;;18.95;36.49
75913;BME280;64592;52.168;21.040;2023-05-29T09:04:47;100673.31;;;18.98;36.07
75913;BME280;64592;52.168;21.040;2023-05-29T09:09:50;100670.16;;;19.11;36.99
75913;BME280;64592;52.168;21.040;2023-05-29T09:14:52;100666.81;;;19.25;41.61
75913;BME280;64592;52.168;21.040;2023-05-29T09:19:55;100663.25;;;19.32;38.38
75913;BME280;64592;52.168;21.040;2023-05-29T09:24:57;100666.75;;;19.51;38.86
75913;BME280;64592;52.168;21.040;2023-05-29T09:30:04;100667.31;;;19.62;38.02
75913;BME280;64592;52.168;21.040;2023-05-29T09:35:08;100664.59;;;19.78;37.11
75913;BME280;64592;52.168;21.040;2023-05-29T09:40:11;100656.63;;;19.93;37.26
75913;BME280;64592;52.168;21.040;2023-05-29T09:45:13;100651.50;;;20.06;35.22
75913;BME280;64592;52.168;21.040;2023-05-29T09:50:20;100650.31;;;20.25;35.23
75913;BME280;64592;52.168;21.040;2023-05-29T09:55:24;100651.34;;;20.40;36.05
75913;BME280;64592;52.168;21.040;2023-05-29T10:00:26;100648.28;;;20.60;34.99
75913;BME280;64592;52.168;21.040;2023-05-29T10:05:30;100646.34;;;20.76;35.23
75913;BME280;64592;52.168;21.040;2023-05-29T10:10:34;100645.78;;;20.97;33.84
75913;BME280;64592;52.168;21.040;2023-05-29T10:15:36;100639.25;;;21.06;33.70
75913;BME280;64592;52.168;21.040;2023-05-29T10:20:41;100628.78;;;21.18;33.17
75913;BME280;64592;52.168;21.040;2023-05-29T10:25:49;100634.53;;;21.39;33.96
75913;BME280;64592;52.168;21.040;2023-05-29T10:30:54;100637.75;;;21.74;35.78
75913;BME280;64592;52.168;21.040;2023-05-29T10:36:07;100636.91;;;22.04;33.78
75913;BME280;64592;52.168;21.040;2023-05-29T10:41:31;100629.72;;;22.40;33.37
75913;BME280;64592;52.168;21.040;2023-05-29T10:47:01;100627.59;;;22.65;32.24
75913;BME280;64592;52.168;21.040;2023-05-29T10:52:06;100631.34;;;22.87;32.10
75913;BME280;64592;52.168;21.040;2023-05-29T10:57:08;100631.81;;;22.91;31.49
75913;BME280;64592;52.168;21.040;2023-05-29T11:02:11;100617.03;;;23.06;31.81
75913;BME280;64592;52.168;21.040;2023-05-29T11:07:39;100611.91;;;23.33;32.73
75913;BME280;64592;52.168;21.040;2023-05-29T11:12:58;100605.44;;;23.55;30.78
75913;BME280;64592;52.168;21.040;2023-05-29T11:18:06;100597.41;;;23.75;30.87
75913;BME280;64592;52.168;21.040;2023-05-29T11:23:16;100600.28;;;23.88;29.08
75913;BME280;64592;52.168;21.040;2023-05-29T11:28:20;100597.69;;;24.22;29.97
75913;BME280;64592;52.168;21.040;2023-05-29T11:33:26;100591.38;;;24.28;29.34
75913;BME280;64592;52.168;21.040;2023-05-29T11:38:30;100588.44;;;24.30;28.51
75913;BME280;64592;52.168;21.040;2023-05-29T11:43:32;100593.06;;;24.51;29.36
75913;BME280;64592;52.168;21.040;2023-05-29T11:48:44;100595.72;;;24.65;28.57
75913;BME280;64592;52.168;21.040;2023-05-29T11:53:49;100586.00;;;24.76;27.20
75913;BME280;64592;52.168;21.040;2023-05-29T11:58:58;100582.69;;;25.22;26.88
75913;BME280;64592;52.168;21.040;2023-05-29T12:04:14;100586.13;;;25.30;27.28
75913;BME280;64592;52.168;21.040;2023-05-29T12:09:30;100581.69;;;25.36;27.88
75913;BME280;64592;52.168;21.040;2023-05-29T12:14:32;100585.44;;;25.63;27.37
75913;BME280;64592;52.168;21.040;2023-05-29T12:19:34;100577.66;;;25.99;27.93
75913;BME280;64592;52.168;21.040;2023-05-29T12:24:38;100562.59;;;26.35;27.94
75913;BME280;64592;52.168;21.040;2023-05-29T12:29:44;100571.72;;;26.75;26.31
75913;BME280;64592;52.168;21.040;2023-05-29T12:34:49;100564.44;;;27.00;26.64
75913;BME280;64592;52.168;21.040;2023-05-29T12:40:10;100556.72;;;27.15;25.36
75913;BME280;64592;52.168;21.040;2023-05-29T12:45:12;100557.28;;;27.30;25.28
75913;BME280;64592;52.168;21.040;2023-05-29T12:50:25;100548.03;;;26.98;24.99
75913;BME280;64592;52.168;21.040;2023-05-29T12:55:35;100549.94;;;27.04;25.40
75913;BME280;64592;52.168;21.040;2023-05-29T13:00:41;100543.69;;;27.22;26.55
75913;BME280;64592;52.168;21.040;2023-05-29T13:05:42;100534.03;;;27.38;25.54
75913;BME280;64592;52.168;21.040;2023-05-29T13:10:46;100531.91;;;27.40;25.25
75913;BME280;64592;52.168;21.040;2023-05-29T13:15:48;100533.59;;;26.90;26.08
75913;BME280;64592;52.168;21.040;2023-05-29T13:20:50;100531.34;;;26.27;26.79
75913;BME280;64592;52.168;21.040;2023-05-29T13:25:53;100521.94;;;25.96;27.05
75913;BME280;64592;52.168;21.040;2023-05-29T13:30:55;100522.13;;;25.61;27.94
75913;BME280;64592;52.168;21.040;2023-05-29T13:35:56;100509.88;;;25.23;28.89
75913;BME280;64592;52.168;21.040;2023-05-29T13:41:02;100517.06;;;25.10;29.63
75913;BME280;64592;52.168;21.040;2023-05-29T13:46:04;100513.53;;;24.89;28.94
75913;BME280;64592;52.168;21.040;2023-05-29T13:51:06;100514.94;;;24.78;30.01
75913;BME280;64592;52.168;21.040;2023-05-29T13:56:09;100513.84;;;24.66;29.38
75913;BME280;64592;52.168;21.040;2023-05-29T14:01:11;100500.88;;;25.01;30.59
75913;BME280;64592;52.168;21.040;2023-05-29T14:06:12;100501.34;;;25.85;31.72
75913;BME280;64592;52.168;21.040;2023-05-29T14:11:15;100497.66;;;26.70;27.44
75913;BME280;64592;52.168;21.040;2023-05-29T14:16:17;100499.47;;;27.47;27.24
75913;BME280;64592;52.168;21.040;2023-05-29T14:21:19;100489.44;;;28.15;25.49
75913;BME280;64592;52.168;21.040;2023-05-29T14:26:23;100498.84;;;28.76;24.32
75913;BME280;64592;52.168;21.040;2023-05-29T14:31:24;100478.16;;;29.26;25.12
75913;BME280;64592;52.168;21.040;2023-05-29T14:36:27;100480.38;;;29.36;22.86
75913;BME280;64592;52.168;21.040;2023-05-29T14:41:30;100484.81;;;29.67;22.70
75913;BME280;64592;52.168;21.040;2023-05-29T14:46:32;100483.41;;;29.76;23.24
75913;BME280;64592;52.168;21.040;2023-05-29T14:51:35;100473.22;;;30.12;23.01
75913;BME280;64592;52.168;21.040;2023-05-29T14:56:38;100480.22;;;30.02;20.60
75913;BME280;64592;52.168;21.040;2023-05-29T15:01:40;100485.19;;;30.00;22.90
75913;BME280;64592;52.168;21.040;2023-05-29T15:06:41;100480.72;;;30.23;21.82
75913;BME280;64592;52.168;21.040;2023-05-29T15:11:45;100467.63;;;30.81;23.94
75913;BME280;64592;52.168;21.040;2023-05-29T15:16:47;100468.44;;;30.94;21.28
75913;BME280;64592;52.168;21.040;2023-05-29T15:21:49;100469.16;;;31.01;24.15
75913;BME280;64592;52.168;21.040;2023-05-29T15:26:52;100468.81;;;30.97;20.02
75913;BME280;64592;52.168;21.040;2023-05-29T15:31:53;100458.09;;;30.54;20.90
75913;BME280;64592;52.168;21.040;2023-05-29T15:36:55;100468.66;;;30.52;21.06
75913;BME280;64592;52.168;21.040;2023-05-29T15:42:02;100470.44;;;30.35;22.84
75913;BME280;64592;52.168;21.040;2023-05-29T15:47:04;100467.28;;;29.96;22.71
75913;BME280;64592;52.168;21.040;2023-05-29T15:52:06;100466.94;;;29.63;21.88
75913;BME280;64592;52.168;21.040;2023-05-29T15:57:09;100460.31;;;29.16;23.01
75913;BME280;64592;52.168;21.040;2023-05-29T16:02:11;100458.38;;;28.25;22.89
75913;BME280;64592;52.168;21.040;2023-05-29T16:07:12;100463.78;;;27.32;24.89
75913;BME280;64592;52.168;21.040;2023-05-29T16:12:15;100458.91;;;26.70;24.18
75913;BME280;64592;52.168;21.040;2023-05-29T16:17:17;100458.16;;;26.17;25.49
75913;BME280;64592;52.168;21.040;2023-05-29T16:22:19;100449.25;;;25.69;25.62
75913;BME280;64592;52.168;21.040;2023-05-29T16:27:22;100446.84;;;25.39;27.33
75913;BME280;64592;52.168;21.040;2023-05-29T16:32:25;100448.28;;;25.16;26.47
75913;BME280;64592;52.168;21.040;2023-05-29T16:37:28;100442.66;;;24.89;28.04
75913;BME280;64592;52.168;21.040;2023-05-29T16:42:31;100450.59;;;24.64;27.67
75913;BME280;64592;52.168;21.040;2023-05-29T16:47:33;100447.97;;;24.43;28.74
75913;BME280;64592;52.168;21.040;2023-05-29T16:52:35;100443.56;;;24.21;29.11
75913;BME280;64592;52.168;21.040;2023-05-29T16:57:38;100433.50;;;24.07;28.21
75913;BME280;64592;52.168;21.040;2023-05-29T17:02:43;100444.19;;;23.95;27.69
75913;BME280;64592;52.168;21.040;2023-05-29T17:07:44;100438.59;;;23.82;28.70
75913;BME280;64592;52.168;21.040;2023-05-29T17:12:48;100435.13;;;23.73;29.61
75913;BME280;64592;52.168;21.040;2023-05-29T17:17:49;100443.75;;;23.64;29.86
75913;BME280;64592;52.168;21.040;2023-05-29T17:22:53;100434.97;;;23.53;30.01
75913;BME280;64592;52.168;21.040;2023-05-29T17:27:56;100450.00;;;23.36;31.10
75913;BME280;64592;52.168;21.040;2023-05-29T17:32:59;100458.72;;;23.18;31.73
75913;BME280;64592;52.168;21.040;2023-05-29T17:38:03;100448.38;;;23.06;30.96
75913;BME280;64592;52.168;21.040;2023-05-29T17:43:06;100449.03;;;22.87;30.57
75913;BME280;64592;52.168;21.040;2023-05-29T17:48:08;100451.69;;;22.80;31.26
75913;BME280;64592;52.168;21.040;2023-05-29T17:53:10;100456.34;;;22.65;31.81
75913;BME280;64592;52.168;21.040;2023-05-29T17:58:15;100452.38;;;22.53;31.08
75913;BME280;64592;52.168;21.040;2023-05-29T18:03:17;100444.78;;;22.40;32.52
75913;BME280;64592;52.168;21.040;2023-05-29T18:08:20;100457.13;;;22.29;32.26
75913;BME280;64592;52.168;21.040;2023-05-29T18:13:23;100460.97;;;22.20;32.74
75913;BME280;64592;52.168;21.040;2023-05-29T18:18:25;100469.31;;;22.12;32.31
75913;BME280;64592;52.168;21.040;2023-05-29T18:23:26;100462.00;;;22.04;33.09
75913;BME280;64592;52.168;21.040;2023-05-29T18:28:32;100462.09;;;21.96;34.50
75913;BME280;64592;52.168;21.040;2023-05-29T18:33:38;100476.34;;;21.92;34.25
75913;BME280;64592;52.168;21.040;2023-05-29T18:38:40;100470.25;;;21.82;34.83
75913;BME280;64592;52.168;21.040;2023-05-29T18:43:45;100479.91;;;21.78;35.97
75913;BME280;64592;52.168;21.040;2023-05-29T18:48:56;100483.25;;;21.65;38.09
75913;BME280;64592;52.168;21.040;2023-05-29T18:53:58;100494.69;;;21.54;39.07
75913;BME280;64592;52.168;21.040;2023-05-29T18:59:01;100499.38;;;21.45;39.38
75913;BME280;64592;52.168;21.040;2023-05-29T19:04:05;100497.88;;;21.35;39.85
75913;BME280;64592;52.168;21.040;2023-05-29T19:09:07;100496.25;;;21.25;40.41
75913;BME280;64592;52.168;21.040;2023-05-29T19:14:12;100506.56;;;21.15;40.71
75913;BME280;64592;52.168;21.040;2023-05-29T19:19:13;100505.06;;;21.05;41.55
75913;BME280;64592;52.168;21.040;2023-05-29T19:24:15;100501.53;;;20.96;41.30
75913;BME280;64592;52.168;21.040;2023-05-29T19:29:19;100518.19;;;20.86;41.32
75913;BME280;64592;52.168;21.040;2023-05-29T19:34:22;100509.00;;;20.71;41.42
75913;BME280;64592;52.168;21.040;2023-05-29T19:39:26;100517.09;;;20.65;41.38
75913;BME280;64592;52.168;21.040;2023-05-29T19:44:29;100525.31;;;20.57;41.85
75913;BME280;64592;52.168;21.040;2023-05-29T19:49:32;100520.72;;;20.49;41.57
75913;BME280;64592;52.168;21.040;2023-05-29T19:54:34;100516.47;;;20.38;42.06
75913;BME280;64592;52.168;21.040;2023-05-29T19:59:39;100524.50;;;20.32;42.17
75913;BME280;64592;52.168;21.040;2023-05-29T20:04:42;100527.25;;;20.24;42.63
75913;BME280;64592;52.168;21.040;2023-05-29T20:09:44;100528.97;;;20.16;42.94
75913;BME280;64592;52.168;21.040;2023-05-29T20:14:49;100526.91;;;20.19;43.04
75913;BME280;64592;52.168;21.040;2023-05-29T20:19:51;100537.53;;;20.22;43.17
75913;BME280;64592;52.168;21.040;2023-05-29T20:24:56;100540.63;;;20.19;45.32
75913;BME280;64592;52.168;21.040;2023-05-29T20:30:00;100539.75;;;20.10;44.97
75913;BME280;64592;52.168;21.040;2023-05-29T20:35:03;100547.63;;;20.13;54.50
75913;BME280;64592;52.168;21.040;2023-05-29T20:40:06;100558.25;;;20.00;49.15
75913;BME280;64592;52.168;21.040;2023-05-29T20:45:10;100547.31;;;19.92;51.29
75913;BME280;64592;52.168;21.040;2023-05-29T20:50:12;100552.25;;;19.80;48.96
75913;BME280;64592;52.168;21.040;2023-05-29T20:55:14;100561.66;;;19.69;48.75
75913;BME280;64592;52.168;21.040;2023-05-29T21:00:17;100552.91;;;19.58;46.31
75913;BME280;64592;52.168;21.040;2023-05-29T21:05:22;100573.72;;;19.43;46.47
75913;BME280;64592;52.168;21.040;2023-05-29T21:10:24;100564.13;;;19.30;46.25
75913;BME280;64592;52.168;21.040;2023-05-29T21:15:28;100559.63;;;19.21;46.53
75913;BME280;64592;52.168;21.040;2023-05-29T21:20:30;100567.13;;;19.03;46.60
75913;BME280;64592;52.168;21.040;2023-05-29T21:25:31;100568.44;;;18.99;46.69
75913;BME280;64592;52.168;21.040;2023-05-29T21:30:35;100563.97;;;18.90;47.03
75913;BME280;64592;52.168;21.040;2023-05-29T21:35:37;100566.88;;;18.88;47.35
75913;BME280;64592;52.168;21.040;2023-05-29T21:40:42;100569.72;;;18.79;47.38
75913;BME280;64592;52.168;21.040;2023-05-29T21:45:45;100561.28;;;18.64;47.37
75913;BME280;64592;52.168;21.040;2023-05-29T21:50:47;100566.63;;;18.48;47.05
75913;BME280;64592;52.168;21.040;2023-05-29T21:55:49;100569.25;;;18.32;47.57
75913;BME280;64592;52.168;21.040;2023-05-29T22:00:53;100565.06;;;18.19;47.74
75913;BME280;64592;52.168;21.040;2023-05-29T22:05:57;100565.88;;;18.12;47.67
75913;BME280;64592;52.168;21.040;2023-05-29T22:10:59;100569.53;;;18.03;47.94
75913;BME280;64592;52.168;21.040;2023-05-29T22:16:09;100572.53;;;17.92;47.64
75913;BME280;64592;52.168;21.040;2023-05-29T22:21:11;100568.38;;;17.88;47.91
75913;BME280;64592;52.168;21.040;2023-05-29T22:26:14;100565.28;;;17.82;48.09
75913;BME280;64592;52.168;21.040;2023-05-29T22:31:17;100560.91;;;17.72;48.87
75913;BME280;64592;52.168;21.040;2023-05-29T22:36:19;100561.25;;;17.69;48.61
75913;BME280;64592;52.168;21.040;2023-05-29T22:41:21;100577.06;;;17.65;48.01
75913;BME280;64592;52.168;21.040;2023-05-29T22:46:24;100580.53;;;17.58;48.16
75913;BME280;64592;52.168;21.040;2023-05-29T22:51:27;100578.28;;;17.53;48.06
75913;BME280;64592;52.168;21.040;2023-05-29T22:56:29;100578.28;;;17.53;48.56
75913;BME280;64592;52.168;21.040;2023-05-29T23:01:33;100568.00;;;17.47;48.12
75913;BME280;64592;52.168;21.040;2023-05-29T23:06:36;100570.00;;;17.45;48.55
75913;BME280;64592;52.168;21.040;2023-05-29T23:11:39;100554.91;;;17.33;48.56
75913;BME280;64592;52.168;21.040;2023-05-29T23:16:42;100565.47;;;17.36;48.47
75913;BME280;64592;52.168;21.040;2023-05-29T23:21:44;100564.38;;;17.29;48.77
75913;BME280;64592;52.168;21.040;2023-05-29T23:26:47;100566.09;;;17.30;48.10
75913;BME280;64592;52.168;21.040;2023-05-29T23:31:50;100566.31;;;17.19;48.08
75913;BME280;64592;52.168;21.040;2023-05-29T23:36:53;100562.19;;;17.15;48.22
75913;BME280;64592;52.168;21.040;2023-05-29T23:41:55;100561.06;;;17.07;48.15
75913;BME280;64592;52.168;21.040;2023-05-29T23:46:58;100563.66;;;17.09;47.71
75913;BME280;64592;52.168;21.040;2023-05-29T23:52:02;100561.06;;;17.07;47.50
75913;BME280;64592;52.168;21.040;2023-05-29T23:57:06;100559.25;;;16.98;47.68
